aviador You're here:

EYPA Decoded Metar

PALANGA INTL in LITHUANIA
Report Time2018-01-17 06:20:00
UTC Time2018-01-17 06:48:47
Flight Rules ifr IFR
Wind130° at 09 kt
W.Decomp.*RWY 19: 3.9 kt HW 8.1 kt LCW
W.Rank130° ranks 13
Current wind is above 130° avg. (5.9)
Visibility2600 m
Phenomena:Light Snow
Clouds:Overcast 026 Hf
Expected CloudBase > 800 ft AGL from Temp-Dew spread
Ceiling2,600 ft
Temp-7°C (ISA -22)
Dew Point-9°C (86% RH)
AAT-13.2°C
QNH0989 hPa
Density Alt-1,814 ft
Elevation33 ft
Report Wrong Elevation
Raw Report
METAR EYPA 170620Z 13009KT 2600 -SN OVC026 M07/M09 Q0989 R19/450295=

Extra information for EYPA:More info

Metar Taf Metar & Taf Last 4 Metars F.Rules Stats Wind Profile Meteogram Temp Stats Airport Information Weather charts Add Link Nearby VenuesMetar ALERT Operation Metar Decoded Social comments